createdAt,value
2018-05-24T00:02:14.549Z,85.60
2018-05-24T00:04:42.841Z,85.50
2018-05-24T00:07:11.148Z,86.10
2018-05-24T00:09:39.368Z,86.00
2018-05-24T00:12:07.592Z,85.80
2018-05-24T00:14:35.812Z,86.10
2018-05-24T00:17:04.088Z,86.20
2018-05-24T00:19:32.369Z,86.00
2018-05-24T00:22:01.368Z,86.30
2018-05-24T00:24:29.597Z,86.20
2018-05-24T00:26:57.821Z,86.30
2018-05-24T00:29:26.039Z,86.40
2018-05-24T00:31:54.291Z,86.50
2018-05-24T00:34:22.521Z,86.50
2018-05-24T00:36:51.539Z,86.30
2018-05-24T00:39:20.523Z,86.20
2018-05-24T00:41:48.759Z,86.50
2018-05-24T00:44:17.001Z,86.40
2018-05-24T00:46:45.263Z,86.40
2018-05-24T00:49:13.485Z,86.50
2018-05-24T00:51:41.897Z,86.50
2018-05-24T00:54:10.134Z,86.70
2018-05-24T00:56:38.381Z,86.50
2018-05-24T00:59:06.639Z,86.20
2018-05-24T01:01:34.877Z,85.90
2018-05-24T01:04:03.094Z,85.40
2018-05-24T01:06:31.333Z,85.70
2018-05-24T01:09:00.337Z,85.90
2018-05-24T01:11:28.583Z,85.90
2018-05-24T01:13:56.821Z,86.10
2018-05-24T01:16:25.067Z,86.00
2018-05-24T01:18:53.285Z,85.90
2018-05-24T01:21:21.539Z,86.30
2018-05-24T01:23:49.752Z,86.60
2018-05-24T01:26:18.088Z,86.70
2018-05-24T01:28:46.317Z,86.40
2018-05-24T01:31:15.355Z,86.40
2018-05-24T01:33:43.610Z,86.40
2018-05-24T01:36:11.917Z,86.70
2018-05-24T01:38:40.157Z,86.60
2018-05-24T01:41:08.520Z,86.80
2018-05-24T01:43:36.745Z,86.90
2018-05-24T01:46:05.022Z,88.10
2018-05-24T01:48:33.243Z,87.30
2018-05-24T01:51:02.297Z,87.10
2018-05-24T01:53:30.527Z,87.10
2018-05-24T01:55:58.754Z,87.10
2018-05-24T01:58:26.969Z,87.10
2018-05-24T02:00:55.969Z,87.20
2018-05-24T02:03:24.479Z,87.10
2018-05-24T02:05:52.701Z,87.30
2018-05-24T02:08:20.902Z,87.40
2018-05-24T02:10:49.178Z,87.50
2018-05-24T02:13:17.393Z,87.50
2018-05-24T02:15:45.597Z,87.80
2018-05-24T02:18:14.607Z,88.20
2018-05-24T02:20:43.614Z,88.40
2018-05-24T02:23:12.151Z,88.40
2018-05-24T02:25:40.355Z,88.70
2018-05-24T02:28:09.364Z,88.60
2018-05-24T02:30:37.643Z,89.30
2018-05-24T02:33:05.886Z,88.10
2018-05-24T02:35:34.112Z,88.20
2018-05-24T02:38:02.373Z,88.30
2018-05-24T02:40:30.593Z,88.10
2018-05-24T02:42:58.837Z,88.40
2018-05-24T02:45:27.071Z,88.50
2018-05-24T02:47:56.098Z,88.70
2018-05-24T02:50:24.333Z,88.70
2018-05-24T02:52:53.345Z,88.50
2018-05-24T02:55:21.604Z,88.50
2018-05-24T02:57:49.878Z,88.70
2018-05-24T03:00:18.120Z,89.00
2018-05-24T03:02:46.365Z,89.10
2018-05-24T03:05:14.621Z,89.10
2018-05-24T03:07:42.920Z,88.90
2018-05-24T03:10:11.330Z,88.90
2018-05-24T03:12:39.581Z,88.70
2018-05-24T03:15:07.807Z,88.50
2018-05-24T03:17:37.787Z,88.40
2018-05-24T03:20:06.308Z,88.40
2018-05-24T03:22:35.298Z,88.50
2018-05-24T03:25:04.286Z,88.50
2018-05-24T03:27:33.296Z,88.30
2018-05-24T03:30:01.527Z,88.30
2018-05-24T03:32:29.757Z,88.20
2018-05-24T03:34:58.032Z,88.10
2018-05-24T03:37:26.310Z,87.90
2018-05-24T03:39:54.593Z,89.60
2018-05-24T03:42:22.852Z,90.10
2018-05-24T03:44:51.074Z,89.90
2018-05-24T03:47:19.300Z,89.20
2018-05-24T03:49:47.533Z,88.80
2018-05-24T03:52:15.826Z,88.60
2018-05-24T03:54:44.033Z,88.50
2018-05-24T03:57:12.261Z,88.70
2018-05-24T04:02:54.600Z,88.60
2018-05-24T04:05:23.593Z,88.90
2018-05-24T04:07:52.642Z,89.70
2018-05-24T04:10:20.857Z,89.60
2018-05-24T04:12:49.084Z,89.10
2018-05-24T04:15:17.302Z,89.30
2018-05-24T04:17:45.570Z,88.90
2018-05-24T04:20:14.093Z,89.20
2018-05-24T04:22:43.085Z,90.00
2018-05-24T04:25:11.300Z,89.90
2018-05-24T04:27:39.632Z,90.20
2018-05-24T04:30:08.078Z,90.20
2018-05-24T04:32:36.306Z,90.10
2018-05-24T04:35:04.519Z,90.30
2018-05-24T04:37:32.760Z,90.40
2018-05-24T04:40:00.972Z,90.10
2018-05-24T04:42:29.969Z,90.00
2018-05-24T04:44:58.224Z,90.00
2018-05-24T04:47:26.462Z,90.10
2018-05-24T04:49:54.676Z,90.10
2018-05-24T04:52:22.912Z,90.10
2018-05-24T04:54:51.240Z,90.20
2018-05-24T04:57:19.461Z,90.50
2018-05-24T04:59:47.703Z,90.50
2018-05-24T05:02:15.916Z,90.50
2018-05-24T05:04:44.193Z,90.20
2018-05-24T05:07:12.406Z,90.10
2018-05-24T05:09:40.644Z,90.00
2018-05-24T05:12:09.028Z,90.10
2018-05-24T05:14:37.321Z,90.00
2018-05-24T05:17:05.564Z,89.60
2018-05-24T05:19:33.872Z,89.50
2018-05-24T05:22:02.122Z,89.30
2018-05-24T05:24:30.341Z,90.10
2018-05-24T05:26:58.568Z,90.10
2018-05-24T05:29:26.798Z,90.10
2018-05-24T05:31:55.025Z,90.20
2018-05-24T05:34:23.289Z,90.20
2018-05-24T05:36:51.602Z,90.10
2018-05-24T05:39:19.835Z,90.00
2018-05-24T05:41:48.813Z,89.60
2018-05-24T05:44:17.829Z,90.30
2018-05-24T05:46:46.049Z,90.30
2018-05-24T05:49:14.275Z,90.70
2018-05-24T05:51:42.557Z,90.90
2018-05-24T05:54:10.789Z,90.40
2018-05-24T05:56:39.005Z,90.30
2018-05-24T05:59:07.236Z,90.50
2018-05-24T06:01:36.267Z,90.80
2018-05-24T06:04:04.549Z,90.90
2018-05-24T06:06:32.780Z,90.80
2018-05-24T06:09:01.093Z,91.00
2018-05-24T06:11:29.321Z,91.20
2018-05-24T06:13:57.726Z,91.20
2018-05-24T06:16:26.213Z,91.10
2018-05-24T06:18:55.224Z,91.30
2018-05-24T06:21:24.214Z,91.30
2018-05-24T06:23:53.228Z,91.30
2018-05-24T06:26:21.458Z,91.30
2018-05-24T06:28:49.763Z,91.40
2018-05-24T06:31:17.993Z,91.40
2018-05-24T06:33:46.221Z,91.30
2018-05-24T06:36:14.444Z,91.20
2018-05-24T06:38:42.767Z,90.80
2018-05-24T06:41:10.995Z,90.80
2018-05-24T06:43:39.326Z,90.50
2018-05-24T06:46:07.553Z,90.40
2018-05-24T06:48:35.774Z,90.30
2018-05-24T06:51:04.816Z,89.60
2018-05-24T06:53:33.035Z,89.40
2018-05-24T06:56:01.272Z,89.70
2018-05-24T06:58:29.498Z,90.10
2018-05-24T07:00:57.756Z,89.50
2018-05-24T07:03:26.787Z,89.40
2018-05-24T07:05:55.125Z,89.40
2018-05-24T07:08:23.265Z,88.20
2018-05-24T07:10:52.296Z,89.30
2018-05-24T07:13:20.525Z,89.30
2018-05-24T07:15:48.761Z,89.70
2018-05-24T07:18:17.001Z,90.00
2018-05-24T07:20:45.990Z,89.60
2018-05-24T07:23:15.826Z,89.40
2018-05-24T07:25:44.064Z,89.40
2018-05-24T07:28:12.290Z,89.10
2018-05-24T07:30:40.577Z,88.60
2018-05-24T07:33:08.804Z,86.80
2018-05-24T07:35:37.813Z,85.80
2018-05-24T07:38:06.029Z,85.70
2018-05-24T07:40:34.476Z,85.90
2018-05-24T07:43:02.743Z,86.40
2018-05-24T07:45:31.029Z,88.10
2018-05-24T07:47:59.239Z,88.20
2018-05-24T07:50:27.477Z,88.70
2018-05-24T07:52:55.708Z,89.20
2018-05-24T07:55:23.960Z,88.50
2018-05-24T07:57:52.177Z,88.40
2018-05-24T08:00:21.184Z,89.40
2018-05-24T08:02:49.423Z,89.20
2018-05-24T08:05:17.733Z,89.00
2018-05-24T08:07:45.948Z,89.30
2018-05-24T08:10:14.474Z,89.50
2018-05-24T08:12:43.490Z,88.80
2018-05-24T08:15:11.732Z,89.60
2018-05-24T08:17:39.965Z,88.30
2018-05-24T08:20:08.576Z,86.70
2018-05-24T08:22:36.827Z,85.30
2018-05-24T08:25:05.036Z,86.20
2018-05-24T08:27:34.045Z,85.10
2018-05-24T08:30:03.424Z,84.20
2018-05-24T08:32:31.652Z,84.20
2018-05-24T08:34:59.910Z,83.40
2018-05-24T08:37:28.160Z,82.80
2018-05-24T08:39:56.476Z,82.70
2018-05-24T08:42:24.755Z,82.50
2018-05-24T08:44:52.990Z,82.00
2018-05-24T08:47:21.374Z,81.30
2018-05-24T08:49:49.581Z,81.50
2018-05-24T08:52:17.829Z,80.80
2018-05-24T08:54:46.830Z,79.10
2018-05-24T08:57:15.815Z,80.00
2018-05-24T08:59:44.808Z,80.40
2018-05-24T09:02:13.813Z,80.10
2018-05-24T09:04:42.042Z,80.00
2018-05-24T09:07:10.276Z,79.80
2018-05-24T09:09:38.503Z,79.90
2018-05-24T09:12:06.828Z,80.20
2018-05-24T09:14:35.093Z,80.30
2018-05-24T09:17:03.347Z,80.20
2018-05-24T09:19:31.563Z,80.30
2018-05-24T09:21:59.805Z,81.50
2018-05-24T09:24:28.822Z,80.00
2018-05-24T09:26:57.103Z,79.90
2018-05-24T09:29:25.433Z,79.30
2018-05-24T09:31:53.566Z,79.50
2018-05-24T09:34:21.789Z,79.50
2018-05-24T09:36:50.789Z,78.40
2018-05-24T09:39:20.318Z,77.50
2018-05-24T09:41:48.567Z,77.50
2018-05-24T09:44:17.608Z,76.40
2018-05-24T09:46:45.841Z,76.30
2018-05-24T09:49:14.817Z,76.30
2018-05-24T09:51:43.828Z,76.60
2018-05-24T09:54:12.812Z,75.30
2018-05-24T09:56:41.812Z,75.20
2018-05-24T09:59:10.802Z,75.50
2018-05-24T10:01:39.808Z,75.20
2018-05-24T10:04:08.020Z,75.20
2018-05-24T10:06:36.262Z,74.90
2018-05-24T10:09:04.533Z,74.20
2018-05-24T10:11:33.521Z,74.70
2018-05-24T10:14:01.807Z,74.20
2018-05-24T10:16:30.159Z,74.30
2018-05-24T10:18:58.303Z,74.60
2018-05-24T10:21:26.641Z,75.10
2018-05-24T10:23:54.869Z,74.40
2018-05-24T10:26:23.184Z,74.90
2018-05-24T10:28:51.401Z,74.60
2018-05-24T10:31:19.638Z,73.90
2018-05-24T10:33:47.865Z,73.90
2018-05-24T10:36:17.680Z,74.60
2018-05-24T10:38:45.898Z,75.30
2018-05-24T10:41:14.177Z,74.80
2018-05-24T10:43:42.392Z,75.80
2018-05-24T10:46:10.637Z,75.60
2018-05-24T10:48:38.881Z,72.70
2018-05-24T10:51:07.944Z,71.20
2018-05-24T10:53:36.117Z,71.10
2018-05-24T10:56:04.625Z,70.40
2018-05-24T10:58:32.815Z,70.40
2018-05-24T11:01:01.062Z,71.00
2018-05-24T11:03:29.473Z,71.20
2018-05-24T11:05:58.320Z,71.40
2018-05-24T11:08:26.496Z,70.80
2018-05-24T11:10:54.732Z,70.80
2018-05-24T11:13:22.984Z,70.40
2018-05-24T11:15:51.960Z,69.90
2018-05-24T11:18:20.967Z,70.10
2018-05-24T11:20:49.936Z,70.00
2018-05-24T11:23:18.939Z,68.50
2018-05-24T11:25:47.916Z,69.00
2018-05-24T11:28:16.912Z,68.80
2018-05-24T11:30:45.896Z,68.40
2018-05-24T11:33:14.127Z,67.50
2018-05-24T11:35:42.348Z,67.10
2018-05-24T11:38:10.582Z,66.50
2018-05-24T11:40:38.809Z,67.30
2018-05-24T11:43:08.195Z,66.60
2018-05-24T11:45:36.356Z,66.50
2018-05-24T11:48:04.576Z,66.80
2018-05-24T11:50:32.865Z,66.30
2018-05-24T11:53:01.072Z,65.40
2018-05-24T11:55:29.297Z,65.30
2018-05-24T11:57:58.309Z,65.50
2018-05-24T12:00:26.566Z,65.40
2018-05-24T12:02:55.548Z,65.60
2018-05-24T12:05:24.554Z,66.00
2018-05-24T12:07:52.868Z,66.00
2018-05-24T12:10:21.080Z,65.90
2018-05-24T12:12:50.067Z,64.50
2018-05-24T12:15:18.417Z,64.50
2018-05-24T12:17:47.372Z,63.70
2018-05-24T12:20:15.608Z,63.60
2018-05-24T12:22:43.921Z,64.20
2018-05-24T12:25:12.195Z,63.80
2018-05-24T12:27:40.416Z,62.40
2018-05-24T12:30:08.946Z,61.80
2018-05-24T12:32:37.932Z,63.40
2018-05-24T12:35:06.216Z,63.40
2018-05-24T12:37:34.455Z,62.80
2018-05-24T12:40:03.133Z,61.90
2018-05-24T12:42:31.458Z,62.00
2018-05-24T12:44:59.681Z,61.20
2018-05-24T12:47:27.900Z,62.60
2018-05-24T12:49:56.117Z,62.50
2018-05-24T12:52:24.340Z,62.00
2018-05-24T12:54:53.317Z,62.90
2018-05-24T12:57:21.535Z,62.90
2018-05-24T12:59:49.731Z,63.40
2018-05-24T13:02:18.015Z,63.50
2018-05-24T13:04:46.245Z,62.50
2018-05-24T13:07:14.469Z,62.40
2018-05-24T13:09:42.680Z,62.80
2018-05-24T13:12:11.677Z,64.30
2018-05-24T13:14:39.939Z,64.30
2018-05-24T13:17:09.076Z,64.20
2018-05-24T13:19:37.154Z,64.10
2018-05-24T13:22:05.380Z,63.10
2018-05-24T13:24:34.425Z,63.00
2018-05-24T13:27:02.565Z,62.90
2018-05-24T13:29:30.841Z,63.50
2018-05-24T13:31:59.049Z,63.10
2018-05-24T13:34:27.313Z,61.00
2018-05-24T13:36:56.393Z,62.10
2018-05-24T13:39:24.616Z,62.10
2018-05-24T13:41:52.826Z,61.70
2018-05-24T13:44:21.052Z,60.30
2018-05-24T13:46:49.592Z,60.30
2018-05-24T13:49:17.865Z,60.30
2018-05-24T13:51:46.068Z,61.00
2018-05-24T13:54:14.325Z,60.30
2018-05-24T13:56:42.588Z,60.00
2018-05-24T13:59:11.126Z,60.20
2018-05-24T14:01:39.403Z,61.10
2018-05-24T14:04:07.612Z,62.30
2018-05-24T14:09:04.060Z,63.40
2018-05-24T14:11:33.040Z,63.10
2018-05-24T14:14:02.063Z,64.10
2018-05-24T14:16:30.337Z,64.00
2018-05-24T14:18:58.712Z,64.20
2018-05-24T14:21:26.985Z,64.50
2018-05-24T14:23:55.204Z,64.20
2018-05-24T14:26:23.405Z,64.50
2018-05-24T14:28:51.623Z,63.40
2018-05-24T14:31:19.819Z,63.20
2018-05-24T14:33:48.052Z,63.10
2018-05-24T14:36:16.263Z,62.90
2018-05-24T14:38:44.506Z,63.20
2018-05-24T14:41:12.736Z,63.50
2018-05-24T14:43:40.973Z,62.60
2018-05-24T14:46:09.234Z,63.20
2018-05-24T14:48:37.491Z,63.40
2018-05-24T14:51:05.714Z,62.40
2018-05-24T14:53:33.953Z,62.30
2018-05-24T14:56:02.167Z,62.60
2018-05-24T14:58:30.398Z,64.70
2018-05-24T15:00:59.357Z,65.90
2018-05-24T15:03:27.585Z,65.90
2018-05-24T15:05:55.788Z,65.90
2018-05-24T15:08:24.016Z,67.80
2018-05-24T15:10:52.850Z,68.60
2018-05-24T15:16:25.190Z,68.60
2018-05-24T15:18:54.186Z,69.20
2018-05-24T15:21:23.168Z,69.70
2018-05-24T15:23:52.163Z,70.20
2018-05-24T15:26:21.130Z,69.80
2018-05-24T15:28:50.125Z,69.70
2018-05-24T15:31:18.338Z,69.80
2018-05-24T15:33:46.576Z,70.70
2018-05-24T15:36:14.776Z,70.90
2018-05-24T15:38:43.789Z,69.30
2018-05-24T15:41:11.997Z,69.30
2018-05-24T15:43:40.217Z,69.40
2018-05-24T15:46:09.230Z,69.90
2018-05-24T15:48:37.429Z,69.90
2018-05-24T15:51:05.673Z,70.30
2018-05-24T15:53:33.881Z,69.60
2018-05-24T15:56:02.110Z,68.80
2018-05-24T15:58:31.109Z,69.30
2018-05-24T16:00:59.384Z,69.30
2018-05-24T16:03:30.353Z,70.30
2018-05-24T16:05:58.538Z,70.50
2018-05-24T16:08:26.749Z,68.50
2018-05-24T16:10:55.749Z,69.60
2018-05-24T16:13:24.852Z,69.30
2018-05-24T16:15:53.092Z,69.30
2018-05-24T16:18:21.403Z,69.50
2018-05-24T16:20:49.639Z,69.50
2018-05-24T16:23:19.382Z,70.40
2018-05-24T16:25:48.454Z,71.00
2018-05-24T16:28:16.668Z,71.00
2018-05-24T16:30:44.889Z,71.70
2018-05-24T16:33:13.212Z,71.20
2018-05-24T16:35:41.436Z,71.50
2018-05-24T16:38:09.660Z,71.30
2018-05-24T16:40:37.901Z,72.50
2018-05-24T16:43:06.576Z,72.70
2018-05-24T16:45:34.800Z,72.80
2018-05-24T16:48:03.025Z,73.10
2018-05-24T16:50:31.329Z,73.60
2018-05-24T16:53:00.468Z,73.90
2018-05-24T16:55:28.736Z,74.00
2018-05-24T16:57:58.843Z,73.80
2018-05-24T17:00:27.950Z,72.80
2018-05-24T17:02:56.200Z,72.70
2018-05-24T17:05:25.189Z,71.20
2018-05-24T17:07:54.164Z,71.60
2018-05-24T17:10:23.181Z,71.70
2018-05-24T17:12:51.403Z,71.70
2018-05-24T17:15:19.633Z,70.40
2018-05-24T17:17:47.836Z,71.80
2018-05-24T17:20:16.124Z,71.30
2018-05-24T17:22:44.390Z,72.60
2018-05-24T17:25:12.647Z,72.70
2018-05-24T17:27:40.881Z,72.50
2018-05-24T17:30:09.351Z,72.70
2018-05-24T17:32:37.584Z,72.70
2018-05-24T17:35:05.816Z,72.80
2018-05-24T17:37:34.826Z,73.80
2018-05-24T17:40:03.468Z,72.90
2018-05-24T17:42:31.698Z,72.70
2018-05-24T17:44:59.930Z,72.80
2018-05-24T17:47:28.144Z,72.90
2018-05-24T17:49:56.353Z,72.80
2018-05-24T17:52:24.573Z,72.70
2018-05-24T17:54:53.560Z,72.70
2018-05-24T17:57:22.568Z,72.80
2018-05-24T17:59:50.785Z,72.80
2018-05-24T18:02:19.158Z,73.30
2018-05-24T18:04:47.393Z,73.40
2018-05-24T18:07:16.120Z,73.50
2018-05-24T18:09:44.475Z,73.60
2018-05-24T18:12:12.837Z,73.50
2018-05-24T18:14:41.123Z,73.30
2018-05-24T18:17:09.395Z,73.40
2018-05-24T18:19:37.693Z,73.40
2018-05-24T18:22:05.926Z,73.60
2018-05-24T18:24:34.979Z,73.90
2018-05-24T18:27:03.198Z,73.70
2018-05-24T18:29:32.189Z,74.20
2018-05-24T18:32:01.286Z,73.90
2018-05-24T18:34:30.338Z,74.00
2018-05-24T18:36:58.580Z,73.90
2018-05-24T18:39:26.814Z,74.00
2018-05-24T18:41:55.832Z,73.90
2018-05-24T18:44:24.186Z,73.80
2018-05-24T18:46:52.405Z,73.90
2018-05-24T18:49:20.652Z,73.90
2018-05-24T18:51:48.920Z,74.00
2018-05-24T18:54:17.898Z,74.30
2018-05-24T18:56:46.959Z,74.40
2018-05-24T18:59:15.186Z,74.30
2018-05-24T19:01:43.428Z,74.50
2018-05-24T19:04:11.658Z,74.60
2018-05-24T19:06:39.889Z,74.70
2018-05-24T19:09:08.109Z,74.90
2018-05-24T19:11:36.352Z,75.10
2018-05-24T19:14:05.356Z,75.30
2018-05-24T19:16:37.800Z,75.30
2018-05-24T19:19:06.049Z,75.30
2018-05-24T19:21:34.269Z,75.40
2018-05-24T19:24:03.290Z,75.50
2018-05-24T19:26:31.711Z,75.50
2018-05-24T19:28:59.922Z,75.70
2018-05-24T19:31:28.920Z,76.60
2018-05-24T19:33:57.157Z,76.60
2018-05-24T19:36:25.395Z,76.80
2018-05-24T19:38:53.608Z,76.90
2018-05-24T19:41:21.881Z,77.00
2018-05-24T19:43:50.145Z,76.90
2018-05-24T19:46:18.315Z,77.10
2018-05-24T19:48:46.534Z,77.10
2018-05-24T19:51:15.518Z,76.40
2018-05-24T19:53:44.496Z,76.20
2018-05-24T19:56:13.513Z,76.50
2018-05-24T19:58:46.253Z,76.20
2018-05-24T20:01:14.474Z,76.20
2018-05-24T20:03:42.679Z,76.00
2018-05-24T20:06:10.914Z,75.90
2018-05-24T20:08:39.918Z,75.60
2018-05-24T20:11:08.145Z,75.50
2018-05-24T20:13:36.377Z,75.80
2018-05-24T20:16:04.605Z,76.00
2018-05-24T20:18:32.964Z,76.10
2018-05-24T20:21:01.501Z,76.20
2018-05-24T20:23:29.744Z,76.40
2018-05-24T20:25:58.732Z,77.50
2018-05-24T20:28:27.129Z,76.80
2018-05-24T20:30:56.101Z,76.80
2018-05-24T20:33:24.320Z,76.80
2018-05-24T20:35:52.620Z,76.80
2018-05-24T20:38:20.868Z,76.80
2018-05-24T20:40:49.085Z,76.80
2018-05-24T20:43:17.324Z,76.90
2018-05-24T20:45:45.533Z,77.00
2018-05-24T20:48:14.002Z,77.10
2018-05-24T20:50:42.238Z,77.50
2018-05-24T20:53:10.468Z,77.90
2018-05-24T20:55:38.710Z,78.20
2018-05-24T20:58:06.941Z,78.20
2018-05-24T21:00:35.936Z,78.40
2018-05-24T21:03:04.429Z,78.30
2018-05-24T21:05:33.401Z,78.40
2018-05-24T21:08:01.642Z,78.40
2018-05-24T21:10:29.934Z,78.70
2018-05-24T21:12:58.145Z,78.60
2018-05-24T21:15:26.434Z,78.70
2018-05-24T21:17:54.679Z,78.70
2018-05-24T21:20:23.671Z,78.90
2018-05-24T21:22:51.900Z,78.90
2018-05-24T21:25:20.111Z,79.00
2018-05-24T21:27:48.364Z,79.20
2018-05-24T21:30:16.557Z,79.20
2018-05-24T21:32:44.833Z,79.40
2018-05-24T21:35:13.100Z,79.60
2018-05-24T21:37:41.349Z,79.60
2018-05-24T21:40:09.902Z,79.80
2018-05-24T21:42:38.156Z,79.90
2018-05-24T21:45:07.135Z,79.90
2018-05-24T21:47:35.376Z,79.90
2018-05-24T21:50:03.738Z,79.80
2018-05-24T21:52:31.962Z,79.70
2018-05-24T21:55:00.177Z,79.80
2018-05-24T21:57:28.421Z,79.80
2018-05-24T21:59:56.654Z,79.90
2018-05-24T22:02:24.904Z,80.50
2018-05-24T22:04:53.127Z,80.30
2018-05-24T22:07:22.226Z,80.40
2018-05-24T22:09:50.544Z,80.40
2018-05-24T22:12:18.744Z,80.90
2018-05-24T22:14:46.995Z,81.40
2018-05-24T22:17:15.294Z,81.50
2018-05-24T22:19:43.510Z,82.00
2018-05-24T22:22:11.821Z,81.90
2018-05-24T22:24:40.045Z,82.70
2018-05-24T22:27:08.260Z,81.60
2018-05-24T22:29:37.240Z,82.20
2018-05-24T22:32:06.237Z,82.30
2018-05-24T22:34:45.148Z,82.00
2018-05-24T22:37:13.449Z,82.00
2018-05-24T22:39:41.725Z,82.00
2018-05-24T22:42:09.948Z,81.70
2018-05-24T22:44:38.289Z,81.60
2018-05-24T22:47:06.545Z,81.60
2018-05-24T22:49:35.553Z,81.70
2018-05-24T22:52:03.768Z,81.70
2018-05-24T22:54:32.104Z,82.10
2018-05-24T22:57:00.348Z,82.00
2018-05-24T22:59:28.567Z,82.50
2018-05-24T23:01:56.780Z,83.20
2018-05-24T23:04:25.094Z,83.90
2018-05-24T23:06:53.372Z,84.30
2018-05-24T23:09:21.604Z,84.50
2018-05-24T23:11:49.820Z,84.80
2018-05-24T23:14:18.092Z,84.90
2018-05-24T23:16:46.327Z,85.30
2018-05-24T23:19:14.556Z,85.40
2018-05-24T23:21:42.789Z,85.20
2018-05-24T23:24:11.091Z,84.90
2018-05-24T23:26:39.312Z,85.30
2018-05-24T23:29:07.545Z,85.20
2018-05-24T23:31:35.760Z,85.00
2018-05-24T23:34:03.996Z,84.80
2018-05-24T23:36:32.230Z,84.80
2018-05-24T23:39:00.488Z,85.80
2018-05-24T23:41:28.760Z,85.60
2018-05-24T23:43:57.082Z,85.10
2018-05-24T23:46:26.099Z,84.50
2018-05-24T23:48:55.063Z,84.40
2018-05-24T23:51:24.056Z,84.90
2018-05-24T23:53:53.025Z,85.00
2018-05-24T23:56:21.249Z,84.90
2018-05-24T23:58:49.478Z,85.20
